createdAt,value
2024-05-09T00:01:29.008Z,102008.48
2024-05-09T00:03:56.642Z,102010.39
2024-05-09T00:06:24.249Z,102010.26
2024-05-09T00:08:51.760Z,102014.70
2024-05-09T00:11:20.576Z,102015.21
2024-05-09T00:13:48.582Z,102012.85
2024-05-09T00:16:16.162Z,102014.84
2024-05-09T00:18:43.807Z,102013.39
2024-05-09T00:21:11.497Z,102008.95
2024-05-09T00:23:39.207Z,102010.83
2024-05-09T00:26:07.061Z,102010.56
2024-05-09T00:28:34.670Z,102010.25
2024-05-09T00:31:02.778Z,102008.77
2024-05-09T00:33:30.700Z,102010.77
2024-05-09T00:35:58.484Z,102012.23
2024-05-09T00:38:26.123Z,102015.25
2024-05-09T00:40:53.833Z,102014.78
2024-05-09T00:43:21.390Z,102017.95
2024-05-09T00:45:49.030Z,102021.14
2024-05-09T00:48:19.787Z,102017.16
2024-05-09T00:50:50.393Z,102015.77
2024-05-09T00:53:19.149Z,102018.33
2024-05-09T00:55:47.837Z,102014.00
2024-05-09T00:58:19.973Z,102013.36
2024-05-09T01:00:50.090Z,102015.23
2024-05-09T01:03:18.094Z,102014.58
2024-05-09T01:05:45.880Z,102012.19
2024-05-09T01:08:13.671Z,102008.71
2024-05-09T01:10:44.160Z,102011.73
2024-05-09T01:13:13.791Z,102012.48
2024-05-09T01:15:41.714Z,102012.59
2024-05-09T01:18:13.799Z,102015.48
2024-05-09T01:20:44.609Z,102017.13
2024-05-09T01:23:15.215Z,102013.67
2024-05-09T01:25:45.866Z,102016.45
2024-05-09T01:28:14.861Z,102018.48
2024-05-09T01:30:42.503Z,102018.82
2024-05-09T01:33:11.854Z,102017.52
2024-05-09T01:35:41.656Z,102017.67
2024-05-09T01:38:16.726Z,102013.17
2024-05-09T01:40:45.183Z,102011.80
2024-05-09T01:43:12.907Z,102014.96
2024-05-09T01:45:41.283Z,102021.25
2024-05-09T01:48:11.148Z,102020.67
2024-05-09T01:50:42.089Z,102016.48
2024-05-09T01:53:13.745Z,102021.64
2024-05-09T01:55:43.001Z,102025.85
2024-05-09T01:58:10.915Z,102021.38
2024-05-09T02:00:42.311Z,102019.90
2024-05-09T02:03:16.040Z,102019.98
2024-05-09T02:05:48.311Z,102017.10
2024-05-09T02:08:21.543Z,102016.70
2024-05-09T02:10:50.707Z,102013.31
2024-05-09T02:13:18.734Z,102012.20
2024-05-09T02:15:46.547Z,102011.13
2024-05-09T02:18:14.473Z,102011.04
2024-05-09T02:20:43.123Z,102010.92
2024-05-09T02:23:12.114Z,102005.65
2024-05-09T02:25:41.242Z,102005.13
2024-05-09T02:28:09.100Z,102003.05
2024-05-09T02:30:40.650Z,102002.09
2024-05-09T02:33:11.692Z,102005.92
2024-05-09T02:35:42.225Z,102009.54
2024-05-09T02:38:10.597Z,102007.70
2024-05-09T02:40:39.697Z,102008.20
2024-05-09T02:43:10.174Z,102007.64
2024-05-09T02:45:40.342Z,102009.56
2024-05-09T02:48:13.235Z,102008.33
2024-05-09T02:50:43.808Z,102012.25
2024-05-09T02:53:12.250Z,102014.70
2024-05-09T02:55:40.899Z,102011.19
2024-05-09T02:58:09.304Z,102013.95
2024-05-09T03:00:40.881Z,102011.02
2024-05-09T03:03:13.432Z,102013.92
2024-05-09T03:05:44.962Z,102010.94
2024-05-09T03:08:13.342Z,102013.34
2024-05-09T03:10:41.329Z,102015.70
2024-05-09T03:13:12.250Z,102017.05
2024-05-09T03:15:40.693Z,102016.32
2024-05-09T03:18:08.486Z,102016.39
2024-05-09T03:20:37.198Z,102021.73
2024-05-09T03:23:09.245Z,102021.31
2024-05-09T03:25:38.635Z,102024.41
2024-05-09T03:28:07.146Z,102025.65
2024-05-09T03:30:41.095Z,102024.67
2024-05-09T03:33:17.430Z,102028.11
2024-05-09T03:35:46.923Z,102025.40
2024-05-09T03:38:15.216Z,102022.80
2024-05-09T03:40:50.393Z,102022.11
2024-05-09T03:43:19.786Z,102017.89
2024-05-09T03:45:49.503Z,102018.38
2024-05-09T03:48:17.520Z,102015.56
2024-05-09T03:50:45.410Z,102010.54
2024-05-09T03:53:14.375Z,102008.27
2024-05-09T03:55:42.115Z,102007.44
2024-05-09T03:58:09.836Z,102008.40
2024-05-09T04:00:39.556Z,102007.04
2024-05-09T04:03:10.790Z,102007.64
2024-05-09T04:05:42.592Z,102014.13
2024-05-09T04:08:15.230Z,102015.39
2024-05-09T04:10:43.506Z,102016.60
2024-05-09T04:13:11.412Z,102009.34
2024-05-09T04:15:39.534Z,102007.91
2024-05-09T04:18:07.404Z,102016.94
2024-05-09T04:20:39.175Z,102017.06
2024-05-09T04:23:13.533Z,102018.33
2024-05-09T04:25:44.036Z,102015.13
2024-05-09T04:28:12.678Z,102011.87
2024-05-09T04:30:41.729Z,102011.78
2024-05-09T04:33:12.368Z,102009.11
2024-05-09T04:35:45.505Z,102007.43
2024-05-09T04:38:14.431Z,102012.56
2024-05-09T04:40:43.208Z,102014.38
2024-05-09T04:43:15.944Z,102012.52
2024-05-09T04:45:44.406Z,102014.50
2024-05-09T04:48:12.313Z,102011.55
2024-05-09T04:50:40.303Z,102011.30
2024-05-09T04:53:09.891Z,102009.15
2024-05-09T04:55:40.023Z,102007.70
2024-05-09T04:58:09.228Z,102015.10
2024-05-09T05:00:39.730Z,102015.45
2024-05-09T05:03:13.876Z,102017.41
2024-05-09T05:05:45.686Z,102016.64
2024-05-09T05:08:19.064Z,102011.86
2024-05-09T05:10:48.426Z,102011.60
2024-05-09T05:13:19.878Z,102010.20
2024-05-09T05:15:51.130Z,102013.13
2024-05-09T05:18:19.665Z,102018.70
2024-05-09T05:20:48.201Z,102022.39
2024-05-09T05:23:19.226Z,102024.46
2024-05-09T05:25:48.501Z,102020.30
2024-05-09T05:28:17.227Z,102021.17
2024-05-09T05:30:45.905Z,102023.91
2024-05-09T05:33:15.285Z,102023.92
2024-05-09T05:35:43.845Z,102018.08
2024-05-09T05:38:11.631Z,102014.39
2024-05-09T05:40:40.431Z,102012.66
2024-05-09T05:43:15.852Z,102012.05
2024-05-09T05:45:45.432Z,102012.31
2024-05-09T05:48:18.020Z,102011.70
2024-05-09T05:50:46.351Z,102010.02
2024-05-09T05:53:14.309Z,102010.77
2024-05-09T05:55:42.115Z,102009.23
2024-05-09T05:58:10.868Z,102010.88
2024-05-09T06:00:40.252Z,102007.69
2024-05-09T06:03:09.963Z,102008.11
2024-05-09T06:05:40.039Z,102010.56
2024-05-09T06:08:08.563Z,102012.48
2024-05-09T06:10:39.543Z,102018.66
2024-05-09T06:13:13.121Z,102017.52
2024-05-09T06:15:42.050Z,102017.65
2024-05-09T06:18:11.374Z,102016.27
2024-05-09T06:20:43.030Z,102018.36
2024-05-09T06:23:12.408Z,102015.29
2024-05-09T06:25:41.608Z,102013.61
2024-05-09T06:28:09.461Z,102016.97
2024-05-09T06:30:40.216Z,102018.30
2024-05-09T06:33:12.884Z,102021.00
2024-05-09T06:35:43.255Z,102015.38
2024-05-09T06:38:11.655Z,102011.11
2024-05-09T06:40:42.363Z,102006.14
2024-05-09T06:43:16.574Z,102006.55
2024-05-09T06:45:48.269Z,102000.91
2024-05-09T06:48:18.790Z,102003.01
2024-05-09T06:50:47.358Z,102004.31
2024-05-09T06:53:16.294Z,102003.69
2024-05-09T06:55:43.979Z,102004.20
2024-05-09T06:58:11.583Z,101999.60
2024-05-09T07:00:41.302Z,101999.89
2024-05-09T07:03:12.285Z,102003.13
2024-05-09T07:05:41.756Z,101996.27
2024-05-09T07:08:09.750Z,101993.23
2024-05-09T07:10:37.962Z,101990.16
2024-05-09T07:13:09.813Z,101987.70
2024-05-09T07:15:37.624Z,101983.61
2024-05-09T07:18:16.713Z,101985.48
2024-05-09T07:20:46.438Z,101982.29
2024-05-09T07:23:14.978Z,101981.69
2024-05-09T07:25:42.849Z,101977.63
2024-05-09T07:28:13.425Z,101978.11
2024-05-09T07:30:41.858Z,101977.48
2024-05-09T07:33:12.050Z,101972.71
2024-05-09T07:35:39.934Z,101973.41
2024-05-09T07:38:08.219Z,101981.30
2024-05-09T07:40:37.052Z,101980.50
2024-05-09T07:43:06.621Z,101981.64
2024-05-09T07:53:37.054Z,101971.24
2024-05-09T07:55:57.683Z,101970.42
2024-05-09T07:58:27.595Z,101973.15
2024-05-09T08:00:55.676Z,101976.70
2024-05-09T08:03:23.603Z,101977.70
2024-05-09T08:05:51.794Z,101976.11
2024-05-09T08:08:19.959Z,101965.83
2024-05-09T08:10:48.063Z,101967.61
2024-05-09T08:13:15.831Z,101961.52
2024-05-09T08:15:43.478Z,101960.08
2024-05-09T08:18:11.517Z,101958.44
2024-05-09T08:20:41.355Z,101959.55
2024-05-09T08:23:10.697Z,101957.16
2024-05-09T08:25:38.643Z,101954.55
2024-05-09T08:28:06.583Z,101948.56
2024-05-09T08:30:37.224Z,101945.45
2024-05-09T08:33:07.117Z,101944.20
2024-05-09T08:35:36.324Z,101946.50
2024-05-09T08:38:05.715Z,101941.94
2024-05-09T08:40:36.298Z,101944.44
2024-05-09T08:43:11.546Z,101949.85
2024-05-09T08:45:45.126Z,101949.86
2024-05-09T08:48:15.261Z,101939.33
2024-05-09T08:50:45.269Z,101944.99
2024-05-09T08:53:15.138Z,101940.13
2024-05-09T08:55:45.466Z,101939.66
2024-05-09T08:58:17.040Z,101942.73
2024-05-09T09:00:46.392Z,101936.68
2024-05-09T09:03:19.402Z,101936.45
2024-05-09T09:06:05.372Z,101935.91
2024-05-09T09:08:33.033Z,101940.68
2024-05-09T09:11:00.690Z,101944.42
2024-05-09T09:13:28.700Z,101938.75
2024-05-09T09:15:59.941Z,101931.17
2024-05-09T09:18:29.882Z,101935.77
2024-05-09T09:20:57.611Z,101937.81
2024-05-09T09:23:30.473Z,101933.27
2024-05-09T09:26:01.450Z,101936.30
2024-05-09T09:28:29.837Z,101939.30
2024-05-09T09:31:03.036Z,101944.75
2024-05-09T09:33:31.485Z,101942.77
2024-05-09T09:36:03.147Z,101943.02
2024-05-09T09:38:32.339Z,101942.27
2024-05-09T09:41:04.005Z,101940.34
2024-05-09T09:43:33.205Z,101942.59
2024-05-09T09:46:02.040Z,101945.27
2024-05-09T09:48:31.454Z,101942.37
2024-05-09T09:51:00.081Z,101938.90
2024-05-09T09:53:33.469Z,101938.89
2024-05-09T09:56:01.983Z,101935.75
2024-05-09T09:58:32.675Z,101932.86
2024-05-09T10:01:00.538Z,101933.54
2024-05-09T10:03:28.568Z,101929.23
2024-05-09T10:05:57.894Z,101927.11
2024-05-09T10:08:25.856Z,101928.27
2024-05-09T10:10:54.221Z,101925.82
2024-05-09T10:13:32.682Z,101927.25
2024-05-09T10:16:07.316Z,101924.36
2024-05-09T10:18:39.854Z,101924.16
2024-05-09T10:21:18.433Z,101920.60
2024-05-09T10:24:09.222Z,101929.60
2024-05-09T10:26:38.218Z,101927.73
2024-05-09T10:29:13.698Z,101927.11
2024-05-09T10:31:42.716Z,101929.20
2024-05-09T10:34:18.564Z,101926.56
2024-05-09T10:36:46.138Z,101923.59
2024-05-09T10:39:13.858Z,101923.90
2024-05-09T10:41:41.394Z,101929.02
2024-05-09T10:44:17.026Z,101926.41
2024-05-09T10:46:46.139Z,101924.61
2024-05-09T10:49:14.766Z,101922.21
2024-05-09T10:51:47.346Z,101920.88
2024-05-09T10:54:15.278Z,101924.88
2024-05-09T10:56:43.090Z,101925.33
2024-05-09T10:59:12.454Z,101927.14
2024-05-09T11:01:40.540Z,101926.84
2024-05-09T11:04:09.288Z,101922.20
2024-05-09T11:06:38.271Z,101914.17
2024-05-09T11:09:06.383Z,101915.63
2024-05-09T11:11:34.333Z,101913.38
2024-05-09T11:14:12.483Z,101911.05
2024-05-09T11:16:40.333Z,101907.85
2024-05-09T11:19:13.068Z,101899.21
2024-05-09T11:21:40.766Z,101903.65
2024-05-09T11:24:11.375Z,101905.41
2024-05-09T11:26:39.614Z,101904.29
2024-05-09T11:29:07.160Z,101898.75
2024-05-09T11:31:45.752Z,101897.48
2024-05-09T11:34:13.672Z,101895.83
2024-05-09T11:36:41.502Z,101892.33
2024-05-09T11:39:09.506Z,101882.80
2024-05-09T11:41:37.539Z,101882.88
2024-05-09T11:44:05.194Z,101881.83
2024-05-09T11:46:32.904Z,101879.15
2024-05-09T11:49:00.643Z,101878.30
2024-05-09T11:51:28.373Z,101880.52
2024-05-09T11:53:56.176Z,101879.02
2024-05-09T11:56:23.706Z,101883.44
2024-05-09T11:58:51.293Z,101880.42
2024-05-09T12:01:20.089Z,101874.15
2024-05-09T12:03:49.358Z,101872.41
2024-05-09T12:06:17.677Z,101866.70
2024-05-09T12:08:45.359Z,101867.09
2024-05-09T12:11:13.929Z,101868.05
2024-05-09T12:13:42.013Z,101871.08
2024-05-09T12:16:09.984Z,101869.45
2024-05-09T12:18:37.787Z,101867.16
2024-05-09T12:21:05.656Z,101873.06
2024-05-09T12:23:33.329Z,101868.20
2024-05-09T12:26:01.278Z,101866.74
2024-05-09T12:28:28.990Z,101863.91
2024-05-09T12:30:57.006Z,101859.29
2024-05-09T12:33:24.830Z,101856.18
2024-05-09T12:35:52.743Z,101854.63
2024-05-09T12:38:20.553Z,101852.13
2024-05-09T12:40:48.271Z,101838.90
2024-05-09T12:43:17.118Z,101838.98
2024-05-09T12:45:44.949Z,101837.77
2024-05-09T12:48:13.359Z,101841.44
2024-05-09T12:50:42.006Z,101836.41
2024-05-09T12:53:10.180Z,101834.54
2024-05-09T12:55:44.818Z,101823.60
2024-05-09T12:58:23.946Z,101821.11
2024-05-09T13:00:52.288Z,101815.45
2024-05-09T13:03:21.039Z,101816.27
2024-05-09T13:05:52.849Z,101812.29
2024-05-09T13:08:21.206Z,101809.35
2024-05-09T13:10:49.964Z,101804.69
2024-05-09T13:13:17.692Z,101804.37
2024-05-09T13:15:45.873Z,101801.98
2024-05-09T13:18:13.980Z,101800.58
2024-05-09T13:20:41.853Z,101798.29
2024-05-09T13:23:09.774Z,101795.14
2024-05-09T13:25:38.352Z,101789.86
2024-05-09T13:28:07.635Z,101785.27
2024-05-09T13:30:40.381Z,101790.15
2024-05-09T13:33:11.932Z,101789.77
2024-05-09T13:35:45.714Z,101785.44
2024-05-09T13:38:21.268Z,101779.77
2024-05-09T13:40:50.218Z,101778.50
2024-05-09T13:43:18.919Z,101776.91
2024-05-09T13:45:47.269Z,101773.18
2024-05-09T13:48:15.269Z,101773.15
2024-05-09T13:50:43.137Z,101764.47
2024-05-09T13:53:11.994Z,101762.75
2024-05-09T13:55:40.482Z,101759.05
2024-05-09T13:58:09.450Z,101757.38
2024-05-09T14:00:45.016Z,101750.84
2024-05-09T14:03:19.701Z,101749.16
2024-05-09T14:05:50.852Z,101745.94
2024-05-09T14:08:22.126Z,101739.80
2024-05-09T14:10:50.826Z,101733.23
2024-05-09T14:13:19.942Z,101735.48
2024-05-09T14:15:48.395Z,101730.70
2024-05-09T14:18:16.644Z,101725.83
2024-05-09T14:20:44.291Z,101724.52
2024-05-09T14:23:11.795Z,101723.88
2024-05-09T14:25:42.733Z,101716.95
2024-05-09T14:28:13.009Z,101718.10
2024-05-09T14:30:42.046Z,101716.79
2024-05-09T14:33:11.229Z,101709.94
2024-05-09T14:35:39.316Z,101706.80
2024-05-09T14:38:08.794Z,101700.60
2024-05-09T14:40:42.007Z,101698.78
2024-05-09T14:43:13.982Z,101696.28
2024-05-09T14:45:43.278Z,101692.33
2024-05-09T14:48:13.895Z,101689.79
2024-05-09T14:50:42.407Z,101686.92
2024-05-09T14:53:11.245Z,101681.34
2024-05-09T14:55:41.137Z,101679.91
2024-05-09T14:58:11.512Z,101681.41
2024-05-09T15:00:45.897Z,101682.61
2024-05-09T15:03:21.806Z,101679.67
2024-05-09T15:05:51.374Z,101676.64
2024-05-09T15:08:20.125Z,101677.67
2024-05-09T15:10:49.588Z,101673.93
2024-05-09T15:13:19.366Z,101667.27
2024-05-09T15:15:47.437Z,101664.04
2024-05-09T15:18:16.165Z,101663.20
2024-05-09T15:20:44.753Z,101659.05
2024-05-09T15:23:13.125Z,101656.41
2024-05-09T15:25:40.816Z,101658.52
2024-05-09T15:28:08.683Z,101650.70
2024-05-09T15:30:37.679Z,101648.45
2024-05-09T15:33:06.971Z,101653.61
2024-05-09T15:35:35.805Z,101645.91
2024-05-09T15:38:04.778Z,101638.77
2024-05-09T15:40:39.483Z,101638.27
2024-05-09T15:43:10.579Z,101635.31
2024-05-09T15:45:41.248Z,101633.09
2024-05-09T15:48:10.893Z,101628.29
2024-05-09T15:50:41.457Z,101630.53
2024-05-09T15:53:13.136Z,101630.00
2024-05-09T15:55:42.499Z,101626.10
2024-05-09T15:58:10.932Z,101625.87
2024-05-09T16:00:42.224Z,101624.55
2024-05-09T16:03:13.368Z,101622.21
2024-05-09T16:05:44.910Z,101622.01
2024-05-09T16:08:14.538Z,101627.65
2024-05-09T16:10:45.847Z,101620.27
2024-05-09T16:13:15.697Z,101621.55
2024-05-09T16:15:43.920Z,101611.77
2024-05-09T16:18:12.975Z,101612.14
2024-05-09T16:20:42.469Z,101609.84
2024-05-09T16:23:12.573Z,101607.31
2024-05-09T16:25:45.396Z,101599.48
2024-05-09T16:28:13.757Z,101603.21
2024-05-09T16:30:41.644Z,101601.00
2024-05-09T16:33:11.725Z,101599.84
2024-05-09T16:35:40.005Z,101600.46
2024-05-09T16:38:08.009Z,101598.80
2024-05-09T16:40:39.799Z,101598.97
2024-05-09T16:43:10.883Z,101599.20
2024-05-09T16:45:40.431Z,101600.11
2024-05-09T16:48:08.987Z,101597.27
2024-05-09T16:50:37.344Z,101599.17
2024-05-09T16:53:06.739Z,101603.03
2024-05-09T16:55:35.581Z,101602.50
2024-05-09T16:58:04.462Z,101601.58
2024-05-09T17:00:40.251Z,101596.84
2024-05-09T17:03:14.234Z,101597.27
2024-05-09T17:05:46.512Z,101592.35
2024-05-09T17:08:18.044Z,101593.73
2024-05-09T17:10:48.938Z,101593.77
2024-05-09T17:13:18.249Z,101589.90
2024-05-09T17:15:46.801Z,101588.57
2024-05-09T17:18:15.556Z,101589.73
2024-05-09T17:20:43.135Z,101591.64
2024-05-09T17:23:14.383Z,101585.40
2024-05-09T17:25:42.956Z,101588.33
2024-05-09T17:28:11.362Z,101591.81
2024-05-09T17:30:41.626Z,101586.17
2024-05-09T17:33:11.996Z,101579.58
2024-05-09T17:35:41.144Z,101581.21
2024-05-09T17:38:11.906Z,101582.30
2024-05-09T17:40:40.106Z,101586.35
2024-05-09T17:43:10.749Z,101588.23
2024-05-09T17:45:40.853Z,101583.56
2024-05-09T17:48:11.656Z,101580.48
2024-05-09T17:50:41.585Z,101580.89
2024-05-09T17:53:10.709Z,101587.20
2024-05-09T17:55:40.257Z,101585.42
2024-05-09T17:58:08.991Z,101582.88
2024-05-09T18:00:40.265Z,101583.36
2024-05-09T18:03:14.218Z,101587.10
2024-05-09T18:05:44.776Z,101585.51
2024-05-09T18:08:13.568Z,101583.50
2024-05-09T18:10:42.039Z,101585.39
2024-05-09T18:13:12.226Z,101586.31
2024-05-09T18:15:40.756Z,101588.02
2024-05-09T18:18:10.488Z,101587.09
2024-05-09T18:20:43.655Z,101586.52
2024-05-09T18:23:17.677Z,101590.11
2024-05-09T18:25:47.989Z,101593.34
2024-05-09T18:28:16.998Z,101593.09
2024-05-09T18:30:45.691Z,101592.67
2024-05-09T18:33:13.939Z,101595.38
2024-05-09T18:35:43.939Z,101596.83
2024-05-09T18:38:11.777Z,101599.77
2024-05-09T18:40:41.159Z,101601.55
2024-05-09T18:43:11.400Z,101606.60
2024-05-09T18:45:39.889Z,101606.71
2024-05-09T18:48:09.681Z,101605.44
2024-05-09T18:50:40.327Z,101610.81
2024-05-09T18:53:11.766Z,101609.58
2024-05-09T18:55:41.668Z,101613.80
2024-05-09T18:58:09.624Z,101618.05
2024-05-09T19:00:40.206Z,101619.45
2024-05-09T19:03:12.856Z,101618.80
2024-05-09T19:05:44.214Z,101619.73
2024-05-09T19:08:14.683Z,101618.56
2024-05-09T19:10:43.010Z,101619.05
2024-05-09T19:13:13.143Z,101620.58
2024-05-09T19:15:42.910Z,101620.05
2024-05-09T19:18:15.643Z,101618.20
2024-05-09T19:20:43.957Z,101618.48
2024-05-09T19:23:12.264Z,101616.11
2024-05-09T19:25:40.319Z,101622.11
2024-05-09T19:28:08.539Z,101625.73
2024-05-09T19:30:40.688Z,101626.80
2024-05-09T19:33:12.884Z,101633.61
2024-05-09T19:35:42.788Z,101632.83
2024-05-09T19:38:11.778Z,101635.21
2024-05-09T19:40:39.363Z,101635.77
2024-05-09T19:43:07.600Z,101637.31
2024-05-09T19:45:36.471Z,101638.79
2024-05-09T19:48:06.411Z,101638.48
2024-05-09T19:50:41.522Z,101641.70
2024-05-09T19:53:13.946Z,101640.37
2024-05-09T19:55:42.486Z,101643.45
2024-05-09T19:58:11.261Z,101643.19
2024-05-09T20:00:42.135Z,101642.24
2024-05-09T20:03:12.456Z,101643.67
2024-05-09T20:05:43.947Z,101646.02
2024-05-09T20:08:12.235Z,101642.27
2024-05-09T20:10:39.921Z,101642.98
2024-05-09T20:13:08.549Z,101645.03
2024-05-09T20:15:37.426Z,101643.01
2024-05-09T20:18:06.308Z,101647.28
2024-05-09T20:20:39.254Z,101647.21
2024-05-09T20:23:13.969Z,101642.17
2024-05-09T20:25:42.263Z,101640.83
2024-05-09T20:28:11.117Z,101642.03
2024-05-09T20:30:39.362Z,101640.29
2024-05-09T20:33:08.727Z,101637.98
2024-05-09T20:35:37.546Z,101641.34
2024-05-09T20:38:05.624Z,101641.68
2024-05-09T20:40:37.261Z,101638.83
2024-05-09T20:43:08.443Z,101639.63
2024-05-09T20:45:36.535Z,101640.89
2024-05-09T20:48:05.104Z,101638.92
2024-05-09T20:50:38.762Z,101640.91
2024-05-09T20:53:14.698Z,101641.19
2024-05-09T20:55:44.530Z,101639.85
2024-05-09T20:58:13.546Z,101642.17
2024-05-09T21:00:44.479Z,101638.71
2024-05-09T21:03:16.669Z,101638.27
2024-05-09T21:05:46.795Z,101635.86
2024-05-09T21:08:15.054Z,101638.31
2024-05-09T21:10:42.824Z,101637.36
2024-05-09T21:13:11.183Z,101634.16
2024-05-09T21:15:38.989Z,101632.80
2024-05-09T21:18:07.352Z,101636.65
2024-05-09T21:20:37.452Z,101636.35
2024-05-09T21:23:05.400Z,101635.09
2024-05-09T21:25:33.228Z,101635.63
2024-05-09T21:28:01.283Z,101631.80
2024-05-09T21:30:38.495Z,101636.34
2024-05-09T21:33:13.569Z,101634.85
2024-05-09T21:35:43.611Z,101633.88
2024-05-09T21:38:13.308Z,101631.27
2024-05-09T21:40:41.724Z,101630.36
2024-05-09T21:43:09.850Z,101629.67
2024-05-09T21:45:37.866Z,101629.61
2024-05-09T21:48:07.116Z,101628.75
2024-05-09T21:50:40.309Z,101628.39
2024-05-09T21:53:11.852Z,101626.46
2024-05-09T21:55:40.067Z,101625.98
2024-05-09T21:58:07.983Z,101625.64
2024-05-09T22:00:39.433Z,101627.74
2024-05-09T22:03:08.441Z,101629.06
2024-05-09T22:05:38.802Z,101630.31
2024-05-09T22:08:07.269Z,101631.09
2024-05-09T22:10:36.499Z,101627.64
2024-05-09T22:13:06.358Z,101624.58
2024-05-09T22:15:36.843Z,101623.23
2024-05-09T22:18:07.227Z,101620.95
2024-05-09T22:20:38.455Z,101623.19
2024-05-09T22:23:08.327Z,101627.82
2024-05-09T22:25:38.654Z,101627.64
2024-05-09T22:28:07.217Z,101624.98
2024-05-09T22:30:38.459Z,101626.13
2024-05-09T22:33:10.115Z,101628.58
2024-05-09T22:35:40.263Z,101625.34
2024-05-09T22:38:08.649Z,101624.34
2024-05-09T22:40:46.342Z,101623.92
2024-05-09T22:43:23.050Z,101624.70
2024-05-09T22:45:54.567Z,101626.30
2024-05-09T22:48:23.926Z,101625.66
2024-05-09T22:50:52.932Z,101624.30
2024-05-09T22:53:25.196Z,101621.08
2024-05-09T22:55:53.454Z,101618.81
2024-05-09T22:58:21.969Z,101617.75
2024-05-09T23:00:49.764Z,101617.98
2024-05-09T23:03:20.852Z,101615.55
2024-05-09T23:05:49.029Z,101614.40
2024-05-09T23:08:16.584Z,101611.02
2024-05-09T23:10:44.315Z,101615.04
2024-05-09T23:13:12.102Z,101615.86
2024-05-09T23:15:39.843Z,101612.64
2024-05-09T23:18:08.245Z,101614.58
2024-05-09T23:20:39.027Z,101610.34
2024-05-09T23:23:10.010Z,101607.40
2024-05-09T23:25:41.440Z,101603.55
2024-05-09T23:28:10.354Z,101603.29
2024-05-09T23:30:40.587Z,101599.48
2024-05-09T23:33:11.922Z,101599.73
2024-05-09T23:35:41.709Z,101595.39
2024-05-09T23:38:09.505Z,101593.52
2024-05-09T23:40:40.110Z,101587.55
2024-05-09T23:43:10.477Z,101590.81
2024-05-09T23:45:38.744Z,101589.52
2024-05-09T23:48:07.605Z,101585.09
2024-05-09T23:50:37.999Z,101586.95
2024-05-09T23:53:08.988Z,101590.52
2024-05-09T23:55:38.865Z,101585.20
2024-05-09T23:58:07.682Z,101587.33
